sensor_id;sensor_type;location;lat;lon;timestamp;pressure;altitude;pressure_sealevel;temperature;humidity
78986;BME280;68384;55.750;48.746;2023-06-24T00:00:26;99091.69;;;13.14;39.17
78986;BME280;68384;55.750;48.746;2023-06-24T00:01:29;99095.16;;;13.15;39.22
78986;BME280;68384;55.750;48.746;2023-06-24T00:02:34;99095.16;;;13.15;39.28
78986;BME280;68384;55.750;48.746;2023-06-24T00:03:39;99081.28;;;13.16;39.45
78986;BME280;68384;55.750;48.746;2023-06-24T00:04:43;99088.19;;;13.15;39.53
78986;BME280;68384;55.750;48.746;2023-06-24T00:05:46;99084.75;;;13.15;39.58
78986;BME280;68384;55.750;48.746;2023-06-24T00:06:52;99091.69;;;13.14;39.83
78986;BME280;68384;55.750;48.746;2023-06-24T00:07:54;99083.03;;;13.17;39.74
78986;BME280;68384;55.750;48.746;2023-06-24T00:09:01;99085.63;;;13.17;39.69
78986;BME280;68384;55.750;48.746;2023-06-24T00:10:04;99088.22;;;13.18;39.88
78986;BME280;68384;55.750;48.746;2023-06-24T00:11:09;99091.72;;;13.19;39.99
78986;BME280;68384;55.750;48.746;2023-06-24T00:12:12;99093.44;;;13.18;40.13
78986;BME280;68384;55.750;48.746;2023-06-24T00:13:21;99083.03;;;13.17;40.13
78986;BME280;68384;55.750;48.746;2023-06-24T00:14:25;99088.25;;;13.21;40.22
78986;BME280;68384;55.750;48.746;2023-06-24T00:15:29;99076.06;;;13.16;40.35
78986;BME280;68384;55.750;48.746;2023-06-24T00:16:32;99087.41;;;13.22;40.42
78986;BME280;68384;55.750;48.746;2023-06-24T00:17:36;99088.28;;;13.24;40.39
78986;BME280;68384;55.750;48.746;2023-06-24T00:18:39;99083.09;;;13.24;40.51
78986;BME280;68384;55.750;48.746;2023-06-24T00:19:43;99086.56;;;13.25;40.47
78986;BME280;68384;55.750;48.746;2023-06-24T00:20:46;99084.84;;;13.27;40.47
78986;BME280;68384;55.750;48.746;2023-06-24T00:21:52;99084.84;;;13.25;40.54
78986;BME280;68384;55.750;48.746;2023-06-24T00:22:55;99085.72;;;13.29;40.52
78986;BME280;68384;55.750;48.746;2023-06-24T00:24:01;99086.63;;;13.31;40.48
78986;BME280;68384;55.750;48.746;2023-06-24T00:25:05;99094.44;;;13.31;40.62
78986;BME280;68384;55.750;48.746;2023-06-24T00:26:10;99091.88;;;13.33;40.59
78986;BME280;68384;55.750;48.746;2023-06-24T00:27:12;99094.47;;;13.33;40.42
78986;BME280;68384;55.750;48.746;2023-06-24T00:28:16;99087.53;;;13.33;40.50
78986;BME280;68384;55.750;48.746;2023-06-24T00:29:19;99093.63;;;13.34;40.40
78986;BME280;68384;55.750;48.746;2023-06-24T00:30:23;99091.03;;;13.34;40.62
78986;BME280;68384;55.750;48.746;2023-06-24T00:31:26;99088.44;;;13.35;40.57
78986;BME280;68384;55.750;48.746;2023-06-24T00:32:30;99088.44;;;13.35;40.58
78986;BME280;68384;55.750;48.746;2023-06-24T00:33:33;99092.78;;;13.36;40.54
78986;BME280;68384;55.750;48.746;2023-06-24T00:34:38;99094.50;;;13.37;40.24
78986;BME280;68384;55.750;48.746;2023-06-24T00:35:45;99087.56;;;13.38;40.47
78986;BME280;68384;55.750;48.746;2023-06-24T00:36:50;99087.56;;;13.36;40.97
78986;BME280;68384;55.750;48.746;2023-06-24T00:37:54;99080.66;;;13.38;40.67
78986;BME280;68384;55.750;48.746;2023-06-24T00:39:03;99091.06;;;13.38;40.68
78986;BME280;68384;55.750;48.746;2023-06-24T00:40:08;99087.63;;;13.39;40.68
78986;BME280;68384;55.750;48.746;2023-06-24T00:41:13;99085.88;;;13.40;40.75
78986;BME280;68384;55.750;48.746;2023-06-24T00:42:18;99089.34;;;13.39;40.88
78986;BME280;68384;55.750;48.746;2023-06-24T00:43:22;99084.16;;;13.42;40.92
78986;BME280;68384;55.750;48.746;2023-06-24T00:44:24;99090.25;;;13.42;40.79
78986;BME280;68384;55.750;48.746;2023-06-24T00:45:28;99086.78;;;13.45;40.76
78986;BME280;68384;55.750;48.746;2023-06-24T00:46:33;99088.53;;;13.47;40.68
78986;BME280;68384;55.750;48.746;2023-06-24T00:47:38;99085.94;;;13.49;40.83
78986;BME280;68384;55.750;48.746;2023-06-24T00:48:41;99081.63;;;13.51;40.80
78986;BME280;68384;55.750;48.746;2023-06-24T00:49:45;99080.78;;;13.53;40.77
78986;BME280;68384;55.750;48.746;2023-06-24T00:50:48;99084.28;;;13.55;40.59
78986;BME280;68384;55.750;48.746;2023-06-24T00:51:52;99082.53;;;13.57;40.57
78986;BME280;68384;55.750;48.746;2023-06-24T00:52:55;99087.78;;;13.60;40.44
78986;BME280;68384;55.750;48.746;2023-06-24T00:53:59;99079.13;;;13.61;40.58
78986;BME280;68384;55.750;48.746;2023-06-24T00:55:05;99083.47;;;13.64;40.34
78986;BME280;68384;55.750;48.746;2023-06-24T00:56:09;99080.88;;;13.65;40.50
78986;BME280;68384;55.750;48.746;2023-06-24T00:57:17;99080.06;;;13.69;40.29
78986;BME280;68384;55.750;48.746;2023-06-24T00:58:25;99085.28;;;13.72;40.16
78986;BME280;68384;55.750;48.746;2023-06-24T00:59:28;99078.34;;;13.74;40.21
78986;BME280;68384;55.750;48.746;2023-06-24T01:00:36;99074.00;;;13.76;39.83
78986;BME280;68384;55.750;48.746;2023-06-24T01:01:40;99078.38;;;13.79;39.99
78986;BME280;68384;55.750;48.746;2023-06-24T01:02:43;99071.47;;;13.82;40.09
78986;BME280;68384;55.750;48.746;2023-06-24T01:03:47;99076.66;;;13.84;39.83
78986;BME280;68384;55.750;48.746;2023-06-24T01:04:51;99075.81;;;13.87;39.89
78986;BME280;68384;55.750;48.746;2023-06-24T01:05:54;99076.72;;;13.90;39.76
78986;BME280;68384;55.750;48.746;2023-06-24T01:06:57;99072.38;;;13.92;39.93
78986;BME280;68384;55.750;48.746;2023-06-24T01:08:02;99076.72;;;13.95;39.66
78986;BME280;68384;55.750;48.746;2023-06-24T01:09:04;99062.00;;;13.98;39.63
78986;BME280;68384;55.750;48.746;2023-06-24T01:10:11;99068.97;;;14.01;39.64
78986;BME280;68384;55.750;48.746;2023-06-24T01:11:15;99071.59;;;14.04;39.41
78986;BME280;68384;55.750;48.746;2023-06-24T01:12:19;99073.38;;;14.08;39.52
78986;BME280;68384;55.750;48.746;2023-06-24T01:13:22;99070.78;;;14.11;39.39
78986;BME280;68384;55.750;48.746;2023-06-24T01:14:26;99065.56;;;14.14;39.35
78986;BME280;68384;55.750;48.746;2023-06-24T01:15:28;99069.06;;;14.16;39.24
78986;BME280;68384;55.750;48.746;2023-06-24T01:16:37;99070.81;;;14.20;39.17
78986;BME280;68384;55.750;48.746;2023-06-24T01:17:50;99066.50;;;14.23;39.21
78986;BME280;68384;55.750;48.746;2023-06-24T01:19:05;99066.50;;;14.26;38.92
78986;BME280;68384;55.750;48.746;2023-06-24T01:20:20;99071.75;;;14.31;39.06
78986;BME280;68384;55.750;48.746;2023-06-24T01:21:38;99075.22;;;14.33;38.65
78986;BME280;68384;55.750;48.746;2023-06-24T01:23:19;99076.13;;;14.36;38.94
78986;BME280;68384;55.750;48.746;2023-06-24T01:24:51;99077.00;;;14.40;38.71
78986;BME280;68384;55.750;48.746;2023-06-24T01:28:05;99068.34;;;14.46;38.78
78986;BME280;68384;55.750;48.746;2023-06-24T01:32:30;99069.28;;;14.54;38.50
78986;BME280;68384;55.750;48.746;2023-06-24T01:33:41;99064.06;;;14.54;38.12
78986;BME280;68384;55.750;48.746;2023-06-24T01:34:53;99067.56;;;14.57;38.31
78986;BME280;68384;55.750;48.746;2023-06-24T01:35:58;99071.03;;;14.59;38.21
78986;BME280;68384;55.750;48.746;2023-06-24T01:37:10;99068.41;;;14.61;38.28
78986;BME280;68384;55.750;48.746;2023-06-24T01:38:21;99071.94;;;14.63;38.41
78986;BME280;68384;55.750;48.746;2023-06-24T01:39:26;99071.06;;;14.65;38.36
78986;BME280;68384;55.750;48.746;2023-06-24T01:40:37;99079.75;;;14.67;38.39
78986;BME280;68384;55.750;48.746;2023-06-24T01:41:44;99077.16;;;14.69;38.03
78986;BME280;68384;55.750;48.746;2023-06-24T01:42:49;99076.25;;;14.68;38.29
78986;BME280;68384;55.750;48.746;2023-06-24T01:43:54;99079.78;;;14.70;38.21
78986;BME280;68384;55.750;48.746;2023-06-24T01:44:59;99084.13;;;14.73;38.27
78986;BME280;68384;55.750;48.746;2023-06-24T01:46:05;99078.91;;;14.74;38.27
78986;BME280;68384;55.750;48.746;2023-06-24T01:47:10;99073.69;;;14.74;38.45
78986;BME280;68384;55.750;48.746;2023-06-24T01:48:18;99070.22;;;14.75;37.96
78986;BME280;68384;55.750;48.746;2023-06-24T01:49:23;99069.38;;;14.76;37.83
78986;BME280;68384;55.750;48.746;2023-06-24T01:50:31;99073.72;;;14.79;38.01
78986;BME280;68384;55.750;48.746;2023-06-24T01:51:36;99074.56;;;14.79;38.20
78986;BME280;68384;55.750;48.746;2023-06-24T01:52:43;99071.97;;;14.81;37.91
78986;BME280;68384;55.750;48.746;2023-06-24T01:53:51;99078.94;;;14.83;37.91
78986;BME280;68384;55.750;48.746;2023-06-24T01:54:55;99075.47;;;14.84;38.35
78986;BME280;68384;55.750;48.746;2023-06-24T01:56:00;99074.59;;;14.82;38.15
78986;BME280;68384;55.750;48.746;2023-06-24T01:57:06;99059.81;;;14.81;38.22
78986;BME280;68384;55.750;48.746;2023-06-24T01:58:12;99072.88;;;14.89;37.99
78986;BME280;68384;55.750;48.746;2023-06-24T01:59:17;99072.00;;;14.91;38.09
78986;BME280;68384;55.750;48.746;2023-06-24T02:00:23;99070.25;;;14.93;38.18
78986;BME280;68384;55.750;48.746;2023-06-24T02:01:27;99067.66;;;14.96;37.77
78986;BME280;68384;55.750;48.746;2023-06-24T02:02:32;99066.81;;;14.97;38.27
78986;BME280;68384;55.750;48.746;2023-06-24T02:03:38;99065.94;;;14.97;38.21
78986;BME280;68384;55.750;48.746;2023-06-24T02:04:43;99063.34;;;15.00;38.09
78986;BME280;68384;55.750;48.746;2023-06-24T02:05:47;99063.31;;;15.01;37.86
78986;BME280;68384;55.750;48.746;2023-06-24T02:06:54;99066.81;;;15.04;38.37
78986;BME280;68384;55.750;48.746;2023-06-24T02:07:57;99060.75;;;15.06;37.96
78986;BME280;68384;55.750;48.746;2023-06-24T02:09:02;99067.69;;;15.09;38.33
78986;BME280;68384;55.750;48.746;2023-06-24T02:10:09;99068.56;;;15.11;38.73
78986;BME280;68384;55.750;48.746;2023-06-24T02:11:14;99067.72;;;15.16;38.52
78986;BME280;68384;55.750;48.746;2023-06-24T02:12:19;99071.22;;;15.20;38.65
78986;BME280;68384;55.750;48.746;2023-06-24T02:13:24;99065.97;;;15.17;38.22
78986;BME280;68384;55.750;48.746;2023-06-24T02:14:26;99069.47;;;15.22;38.66
78986;BME280;68384;55.750;48.746;2023-06-24T02:15:31;99070.34;;;15.25;38.73
78986;BME280;68384;55.750;48.746;2023-06-24T02:16:37;99070.31;;;15.27;37.90
78986;BME280;68384;55.750;48.746;2023-06-24T02:17:43;99072.06;;;15.32;38.22
78986;BME280;68384;55.750;48.746;2023-06-24T02:19:09;99066.88;;;15.38;38.06
78986;BME280;68384;55.750;48.746;2023-06-24T02:20:14;99070.34;;;15.43;38.25
78986;BME280;68384;55.750;48.746;2023-06-24T02:21:18;99067.72;;;15.51;38.68
78986;BME280;68384;55.750;48.746;2023-06-24T02:22:24;99065.16;;;15.57;38.12
78986;BME280;68384;55.750;48.746;2023-06-24T02:23:27;99066.03;;;15.64;38.59
78986;BME280;68384;55.750;48.746;2023-06-24T02:24:32;99068.63;;;15.70;37.80
78986;BME280;68384;55.750;48.746;2023-06-24T02:25:36;99073.00;;;15.74;37.42
78986;BME280;68384;55.750;48.746;2023-06-24T02:26:42;99076.47;;;15.74;37.22
78986;BME280;68384;55.750;48.746;2023-06-24T02:27:46;99070.38;;;15.74;37.07
78986;BME280;68384;55.750;48.746;2023-06-24T02:28:50;99068.63;;;15.76;36.64
78986;BME280;68384;55.750;48.746;2023-06-24T02:29:54;99074.72;;;15.81;37.02
78986;BME280;68384;55.750;48.746;2023-06-24T02:31:01;99072.97;;;15.84;36.98
78986;BME280;68384;55.750;48.746;2023-06-24T02:32:06;99074.72;;;15.88;36.87
78986;BME280;68384;55.750;48.746;2023-06-24T02:33:09;99074.72;;;15.88;36.94
78986;BME280;68384;55.750;48.746;2023-06-24T02:34:15;99069.47;;;15.94;37.00
78986;BME280;68384;55.750;48.746;2023-06-24T02:35:18;99073.84;;;15.98;36.43
78986;BME280;68384;55.750;48.746;2023-06-24T02:36:22;99072.94;;;16.01;36.81
78986;BME280;68384;55.750;48.746;2023-06-24T02:37:26;99072.06;;;16.05;36.69
78986;BME280;68384;55.750;48.746;2023-06-24T02:38:29;99073.81;;;16.12;36.74
78986;BME280;68384;55.750;48.746;2023-06-24T02:39:32;99070.31;;;16.11;36.93
78986;BME280;68384;55.750;48.746;2023-06-24T02:40:37;99076.41;;;16.15;37.07
78986;BME280;68384;55.750;48.746;2023-06-24T02:41:40;99071.19;;;16.15;36.47
78986;BME280;68384;55.750;48.746;2023-06-24T02:42:44;99074.63;;;16.18;36.50
78986;BME280;68384;55.750;48.746;2023-06-24T02:43:47;99077.25;;;16.23;36.57
78986;BME280;68384;55.750;48.746;2023-06-24T02:44:51;99078.16;;;16.24;36.21
78986;BME280;68384;55.750;48.746;2023-06-24T02:45:54;99073.78;;;16.21;36.22
78986;BME280;68384;55.750;48.746;2023-06-24T02:46:59;99072.03;;;16.23;36.23
78986;BME280;68384;55.750;48.746;2023-06-24T02:48:04;99074.66;;;16.23;35.96
78986;BME280;68384;55.750;48.746;2023-06-24T02:49:09;99065.06;;;16.22;36.25
78986;BME280;68384;55.750;48.746;2023-06-24T02:50:16;99076.38;;;16.29;36.57
78986;BME280;68384;55.750;48.746;2023-06-24T02:51:22;99083.34;;;16.34;36.64
78986;BME280;68384;55.750;48.746;2023-06-24T02:52:25;99082.47;;;16.37;36.68
78986;BME280;68384;55.750;48.746;2023-06-24T02:53:32;99078.06;;;16.43;36.93
78986;BME280;68384;55.750;48.746;2023-06-24T02:54:36;99077.16;;;16.49;37.16
78986;BME280;68384;55.750;48.746;2023-06-24T02:56:00;99077.16;;;16.58;36.64
78986;BME280;68384;55.750;48.746;2023-06-24T02:57:08;99074.53;;;16.64;36.52
78986;BME280;68384;55.750;48.746;2023-06-24T02:58:43;99077.06;;;16.79;36.46
78986;BME280;68384;55.750;48.746;2023-06-24T02:59:54;99070.91;;;16.92;36.08
78986;BME280;68384;55.750;48.746;2023-06-24T03:01:01;99078.69;;;17.01;35.75
78986;BME280;68384;55.750;48.746;2023-06-24T03:02:08;99077.78;;;17.10;35.29
78986;BME280;68384;55.750;48.746;2023-06-24T03:03:11;99075.13;;;17.19;35.42
78986;BME280;68384;55.750;48.746;2023-06-24T03:04:22;99078.59;;;17.19;35.35
78986;BME280;68384;55.750;48.746;2023-06-24T03:05:27;99079.44;;;17.23;35.09
78986;BME280;68384;55.750;48.746;2023-06-24T03:06:31;99074.19;;;17.27;35.48
78986;BME280;68384;55.750;48.746;2023-06-24T03:07:38;99075.84;;;17.38;35.88
78986;BME280;68384;55.750;48.746;2023-06-24T03:08:42;99076.69;;;17.44;35.41
78986;BME280;68384;55.750;48.746;2023-06-24T03:09:45;99069.66;;;17.52;35.23
78986;BME280;68384;55.750;48.746;2023-06-24T03:10:50;99066.97;;;17.58;35.25
78986;BME280;68384;55.750;48.746;2023-06-24T03:11:56;99066.97;;;17.63;35.32
78986;BME280;68384;55.750;48.746;2023-06-24T03:13:10;99073.00;;;17.69;35.29
78986;BME280;68384;55.750;48.746;2023-06-24T03:14:18;99079.09;;;17.73;35.16
78986;BME280;68384;55.750;48.746;2023-06-24T03:15:22;99079.94;;;17.75;35.07
78986;BME280;68384;55.750;48.746;2023-06-24T03:16:29;99075.53;;;17.80;35.02
78986;BME280;68384;55.750;48.746;2023-06-24T03:17:37;99075.50;;;17.83;35.21
78986;BME280;68384;55.750;48.746;2023-06-24T03:18:41;99078.09;;;17.87;35.11
78986;BME280;68384;55.750;48.746;2023-06-24T03:19:45;99080.69;;;17.90;35.10
78986;BME280;68384;55.750;48.746;2023-06-24T03:20:49;99078.88;;;17.94;35.23
78986;BME280;68384;55.750;48.746;2023-06-24T03:21:57;99081.53;;;17.96;34.67
78986;BME280;68384;55.750;48.746;2023-06-24T03:23:00;99082.34;;;18.01;34.95
78986;BME280;68384;55.750;48.746;2023-06-24T03:24:05;99089.34;;;18.00;34.61
78986;BME280;68384;55.750;48.746;2023-06-24T03:25:10;99082.31;;;18.02;34.74
78986;BME280;68384;55.750;48.746;2023-06-24T03:26:14;99093.69;;;18.03;34.88
78986;BME280;68384;55.750;48.746;2023-06-24T03:27:17;99096.31;;;18.04;35.01
78986;BME280;68384;55.750;48.746;2023-06-24T03:28:21;99091.03;;;18.06;34.97
78986;BME280;68384;55.750;48.746;2023-06-24T03:29:32;99090.19;;;18.02;34.84
78986;BME280;68384;55.750;48.746;2023-06-24T03:30:43;99094.50;;;18.08;34.80
78986;BME280;68384;55.750;48.746;2023-06-24T03:31:50;99099.75;;;18.09;34.79
78986;BME280;68384;55.750;48.746;2023-06-24T03:32:57;99100.59;;;18.11;34.99
78986;BME280;68384;55.750;48.746;2023-06-24T03:33:59;99093.59;;;18.12;35.09
78986;BME280;68384;55.750;48.746;2023-06-24T03:35:04;99100.56;;;18.14;35.50
78986;BME280;68384;55.750;48.746;2023-06-24T03:36:10;99097.06;;;18.15;35.54
78986;BME280;68384;55.750;48.746;2023-06-24T03:37:14;99098.81;;;18.13;35.71
78986;BME280;68384;55.750;48.746;2023-06-24T03:38:18;99093.56;;;18.15;35.40
78986;BME280;68384;55.750;48.746;2023-06-24T03:39:22;99096.16;;;18.16;35.40
78986;BME280;68384;55.750;48.746;2023-06-24T03:40:26;99096.22;;;18.10;35.86
78986;BME280;68384;55.750;48.746;2023-06-24T03:41:29;99098.00;;;18.10;35.97
78986;BME280;68384;55.750;48.746;2023-06-24T03:42:33;99099.72;;;18.12;36.26
78986;BME280;68384;55.750;48.746;2023-06-24T03:43:35;99097.97;;;18.11;36.26
78986;BME280;68384;55.750;48.746;2023-06-24T03:44:39;99087.50;;;18.08;36.46
78986;BME280;68384;55.750;48.746;2023-06-24T03:45:42;99109.28;;;18.16;36.08
78986;BME280;68384;55.750;48.746;2023-06-24T03:46:46;99102.31;;;18.15;36.62
78986;BME280;68384;55.750;48.746;2023-06-24T03:47:50;99103.25;;;18.08;36.34
78986;BME280;68384;55.750;48.746;2023-06-24T03:48:53;99103.19;;;18.13;36.48
78986;BME280;68384;55.750;48.746;2023-06-24T03:49:56;99104.03;;;18.16;36.69
78986;BME280;68384;55.750;48.746;2023-06-24T03:51:00;99104.84;;;18.21;36.40
78986;BME280;68384;55.750;48.746;2023-06-24T03:52:06;99105.75;;;18.19;36.53
78986;BME280;68384;55.750;48.746;2023-06-24T03:53:12;99103.97;;;18.22;36.46
78986;BME280;68384;55.750;48.746;2023-06-24T03:54:15;99111.84;;;18.22;36.59
78986;BME280;68384;55.750;48.746;2023-06-24T03:55:19;99097.88;;;18.19;36.71
78986;BME280;68384;55.750;48.746;2023-06-24T03:56:22;99107.50;;;18.20;36.70
78986;BME280;68384;55.750;48.746;2023-06-24T03:57:26;99100.53;;;18.17;37.29
78986;BME280;68384;55.750;48.746;2023-06-24T03:58:29;99107.53;;;18.17;37.06
78986;BME280;68384;55.750;48.746;2023-06-24T03:59:32;99101.44;;;18.13;36.79
78986;BME280;68384;55.750;48.746;2023-06-24T04:00:35;99098.81;;;18.15;36.81
78986;BME280;68384;55.750;48.746;2023-06-24T04:01:42;99094.53;;;18.06;37.57
78986;BME280;68384;55.750;48.746;2023-06-24T04:02:46;99094.53;;;18.06;37.12
78986;BME280;68384;55.750;48.746;2023-06-24T04:03:50;99098.03;;;18.05;37.63
78986;BME280;68384;55.750;48.746;2023-06-24T04:04:53;99098.03;;;18.07;37.75
78986;BME280;68384;55.750;48.746;2023-06-24T04:05:58;99097.13;;;18.08;37.66
78986;BME280;68384;55.750;48.746;2023-06-24T04:07:01;99100.66;;;18.05;37.86
78986;BME280;68384;55.750;48.746;2023-06-24T04:08:09;99106.75;;;18.06;37.67
78986;BME280;68384;55.750;48.746;2023-06-24T04:09:13;99104.13;;;18.07;37.66
78986;BME280;68384;55.750;48.746;2023-06-24T04:10:19;99102.34;;;18.11;37.55
78986;BME280;68384;55.750;48.746;2023-06-24T04:11:22;99099.69;;;18.15;38.00
78986;BME280;68384;55.750;48.746;2023-06-24T04:12:26;99097.00;;;18.18;37.83
78986;BME280;68384;55.750;48.746;2023-06-24T04:13:29;99098.72;;;18.22;37.63
78986;BME280;68384;55.750;48.746;2023-06-24T04:14:36;99095.22;;;18.23;37.59
78986;BME280;68384;55.750;48.746;2023-06-24T04:15:39;99090.78;;;18.31;37.51
78986;BME280;68384;55.750;48.746;2023-06-24T04:16:43;99091.69;;;18.29;37.50
78986;BME280;68384;55.750;48.746;2023-06-24T04:17:46;99097.72;;;18.35;37.71
78986;BME280;68384;55.750;48.746;2023-06-24T04:18:50;99097.72;;;18.35;37.53
78986;BME280;68384;55.750;48.746;2023-06-24T04:19:52;99096.81;;;18.42;37.46
78986;BME280;68384;55.750;48.746;2023-06-24T04:20:56;99099.41;;;18.44;37.53
78986;BME280;68384;55.750;48.746;2023-06-24T04:22:00;99106.38;;;18.46;37.57
78986;BME280;68384;55.750;48.746;2023-06-24T04:23:04;99100.25;;;18.46;37.29
78986;BME280;68384;55.750;48.746;2023-06-24T04:24:09;99099.41;;;18.44;37.26
78986;BME280;68384;55.750;48.746;2023-06-24T04:25:13;99102.03;;;18.44;37.77
78986;BME280;68384;55.750;48.746;2023-06-24T04:26:15;99099.38;;;18.45;37.80
78986;BME280;68384;55.750;48.746;2023-06-24T04:27:19;99094.13;;;18.45;37.78
78986;BME280;68384;55.750;48.746;2023-06-24T04:28:22;99102.91;;;18.44;38.01
78986;BME280;68384;55.750;48.746;2023-06-24T04:29:26;99108.94;;;18.52;37.88
78986;BME280;68384;55.750;48.746;2023-06-24T04:30:30;99106.25;;;18.59;37.96
78986;BME280;68384;55.750;48.746;2023-06-24T04:31:34;99106.16;;;18.65;38.06
78986;BME280;68384;55.750;48.746;2023-06-24T04:32:37;99109.53;;;18.73;37.96
78986;BME280;68384;55.750;48.746;2023-06-24T04:33:41;99108.72;;;18.72;37.69
78986;BME280;68384;55.750;48.746;2023-06-24T04:34:44;99107.00;;;18.70;37.58
78986;BME280;68384;55.750;48.746;2023-06-24T04:35:48;99110.50;;;18.69;38.14
78986;BME280;68384;55.750;48.746;2023-06-24T04:36:51;99106.13;;;18.69;37.90
78986;BME280;68384;55.750;48.746;2023-06-24T04:37:54;99107.03;;;18.65;38.58
78986;BME280;68384;55.750;48.746;2023-06-24T04:38:58;99107.09;;;18.61;38.28
78986;BME280;68384;55.750;48.746;2023-06-24T04:40:05;99107.16;;;18.56;38.62
78986;BME280;68384;55.750;48.746;2023-06-24T04:41:08;99105.38;;;18.57;38.80
78986;BME280;68384;55.750;48.746;2023-06-24T04:42:12;99104.50;;;18.58;38.49
78986;BME280;68384;55.750;48.746;2023-06-24T04:43:15;99109.78;;;18.55;38.97
78986;BME280;68384;55.750;48.746;2023-06-24T04:44:18;99108.88;;;18.57;39.20
78986;BME280;68384;55.750;48.746;2023-06-24T04:45:22;99110.69;;;18.52;39.49
78986;BME280;68384;55.750;48.746;2023-06-24T04:46:26;99112.41;;;18.55;39.33
78986;BME280;68384;55.750;48.746;2023-06-24T04:47:29;99094.97;;;18.49;39.19
78986;BME280;68384;55.750;48.746;2023-06-24T04:48:33;99103.69;;;18.51;39.51
78986;BME280;68384;55.750;48.746;2023-06-24T04:49:36;99111.50;;;18.57;39.24
78986;BME280;68384;55.750;48.746;2023-06-24T04:50:40;99107.09;;;18.61;38.84
78986;BME280;68384;55.750;48.746;2023-06-24T04:51:43;99102.66;;;18.66;39.27
78986;BME280;68384;55.750;48.746;2023-06-24T04:52:52;99101.75;;;18.68;39.54
78986;BME280;68384;55.750;48.746;2023-06-24T04:53:55;99105.16;;;18.73;39.28
78986;BME280;68384;55.750;48.746;2023-06-24T04:54:59;99106.00;;;18.77;38.95
78986;BME280;68384;55.750;48.746;2023-06-24T04:56:05;99106.00;;;18.77;39.11
78986;BME280;68384;55.750;48.746;2023-06-24T04:57:13;99107.72;;;18.81;38.75
78986;BME280;68384;55.750;48.746;2023-06-24T04:58:25;99112.94;;;18.82;38.72
78986;BME280;68384;55.750;48.746;2023-06-24T04:59:28;99105.09;;;18.79;38.56
78986;BME280;68384;55.750;48.746;2023-06-24T05:00:31;99111.16;;;18.86;39.00
78986;BME280;68384;55.750;48.746;2023-06-24T05:01:35;99104.13;;;18.88;38.90
78986;BME280;68384;55.750;48.746;2023-06-24T05:02:38;99107.59;;;18.90;38.55
78986;BME280;68384;55.750;48.746;2023-06-24T05:03:42;99104.06;;;18.94;38.87
78986;BME280;68384;55.750;48.746;2023-06-24T05:04:45;99102.22;;;18.97;38.71
78986;BME280;68384;55.750;48.746;2023-06-24T05:05:48;99104.81;;;19.02;38.32
78986;BME280;68384;55.750;48.746;2023-06-24T05:06:52;99105.66;;;19.04;38.89
78986;BME280;68384;55.750;48.746;2023-06-24T05:07:55;99105.59;;;19.10;38.75
78986;BME280;68384;55.750;48.746;2023-06-24T05:08:59;99104.63;;;19.16;38.80
78986;BME280;68384;55.750;48.746;2023-06-24T05:10:02;99107.13;;;19.25;38.90
78986;BME280;68384;55.750;48.746;2023-06-24T05:11:08;99100.88;;;19.35;38.72
78986;BME280;68384;55.750;48.746;2023-06-24T05:12:11;99104.22;;;19.44;38.90
78986;BME280;68384;55.750;48.746;2023-06-24T05:13:15;99098.84;;;19.53;38.64
78986;BME280;68384;55.750;48.746;2023-06-24T05:14:18;99098.78;;;19.56;37.31
78986;BME280;68384;55.750;48.746;2023-06-24T05:15:22;99104.88;;;19.60;37.30
78986;BME280;68384;55.750;48.746;2023-06-24T05:16:25;99106.53;;;19.65;37.46
78986;BME280;68384;55.750;48.746;2023-06-24T05:17:29;99109.91;;;19.72;37.85
78986;BME280;68384;55.750;48.746;2023-06-24T05:18:31;99108.13;;;19.74;37.74
78986;BME280;68384;55.750;48.746;2023-06-24T05:19:35;99105.44;;;19.79;37.81
78986;BME280;68384;55.750;48.746;2023-06-24T05:20:38;99102.81;;;19.79;37.76
78986;BME280;68384;55.750;48.746;2023-06-24T05:21:42;99107.19;;;19.78;37.47
78986;BME280;68384;55.750;48.746;2023-06-24T05:22:45;99111.53;;;19.81;37.23
78986;BME280;68384;55.750;48.746;2023-06-24T05:23:49;99105.41;;;19.82;37.35
78986;BME280;68384;55.750;48.746;2023-06-24T05:24:52;99104.47;;;19.83;37.59
78986;BME280;68384;55.750;48.746;2023-06-24T05:25:57;99102.69;;;19.85;37.61
78986;BME280;68384;55.750;48.746;2023-06-24T05:27:04;99112.38;;;19.83;37.35
78986;BME280;68384;55.750;48.746;2023-06-24T05:28:09;99103.56;;;19.85;37.38
78986;BME280;68384;55.750;48.746;2023-06-24T05:29:11;99103.44;;;19.93;37.56
78986;BME280;68384;55.750;48.746;2023-06-24T05:30:15;99106.88;;;19.98;37.69
78986;BME280;68384;55.750;48.746;2023-06-24T05:31:18;99105.91;;;20.02;37.20
78986;BME280;68384;55.750;48.746;2023-06-24T05:32:22;99110.22;;;20.07;37.47
78986;BME280;68384;55.750;48.746;2023-06-24T05:33:25;99103.09;;;20.14;37.27
78986;BME280;68384;55.750;48.746;2023-06-24T05:34:29;99109.94;;;20.24;37.93
78986;BME280;68384;55.750;48.746;2023-06-24T05:35:32;99108.84;;;20.34;37.41
78986;BME280;68384;55.750;48.746;2023-06-24T05:36:36;99118.38;;;20.41;37.29
78986;BME280;68384;55.750;48.746;2023-06-24T05:37:39;99113.84;;;20.48;37.11
78986;BME280;68384;55.750;48.746;2023-06-24T05:38:43;99110.22;;;20.53;36.86
78986;BME280;68384;55.750;48.746;2023-06-24T05:39:46;99111.88;;;20.60;37.01
78986;BME280;68384;55.750;48.746;2023-06-24T05:40:50;99100.34;;;20.66;36.72
78986;BME280;68384;55.750;48.746;2023-06-24T05:41:52;99108.13;;;20.72;35.94
78986;BME280;68384;55.750;48.746;2023-06-24T05:42:58;99104.53;;;20.76;36.01
78986;BME280;68384;55.750;48.746;2023-06-24T05:44:02;99104.34;;;20.83;35.68
78986;BME280;68384;55.750;48.746;2023-06-24T05:45:07;99105.22;;;20.85;35.18
78986;BME280;68384;55.750;48.746;2023-06-24T05:46:10;99101.06;;;20.74;34.86